Friendship — V7RW8 — position and weather

sailwx.info

Track history (hours):
 
Tides and Currents Weather Stations Pressure Air Temp Water Temp Dewpoint Dewpoint Depression Visibility Wind Speed Wind Dir Waves Ship Positions

Friendship

Last reported at 2017-Sep-24 15:42 UTC. Time now 2017-Oct-17 16:57 UTC.
Position N 29°23' W 094°49'.
Warning: this ship's position is 23 days out of date.

; draft 10.3 m.

Type: Cargo ship. MMSI: 538003592.

Date/timePositionNaut miles runAvg speedWind from/ knotsBaromVisibWave heightAir tempDewpointWater temp
2017-Sep-24 15:42N 29°23' W 094°49'211.6
2017-Sep-24 15:30N 29°25' W 094°50'611.2
2017-Sep-24 15:00N 29°30' W 094°52'510.7
2017-Sep-24 14:30N 29°35' W 094°56'510.3
2017-Sep-24 14:00N 29°39' W 094°58'4 8.2
2017-Sep-24 13:30N 29°43' W 095°01'3 6.2
2017-Sep-24 13:00N 29°45' W 095°04'2 4.9
2017-Sep-24 12:30N 29°44' W 095°07'1 1.8
2017-Sep-24 12:00N 29°44' W 095°08'  
2017-Sep-21 17:36N 29°44' W 095°08'0 0.0
2017-Sep-21 17:30N 29°44' W 095°08'0 0.0
2017-Sep-21 17:00N 29°44' W 095°08'0 0.0
2017-Sep-21 16:30N 29°44' W 095°08'1 1.9
2017-Sep-21 16:00N 29°45' W 095°06'3 4.6
2017-Sep-21 15:26N 29°44' W 095°03'3 6.2
2017-Sep-21 15:00N 29°42' W 095°01'5 9.3
2017-Sep-21 14:30N 29°39' W 094°58'611.7
2017-Sep-21 14:00N 29°34' W 094°55'612.3
2017-Sep-21 13:30N 29°28' W 094°51'713.3
2017-Sep-21 12:59N 29°22' W 094°48'  
2017-Sep-16 06:08N 28°48' W 095°06'0 0.0
2017-Sep-16 05:53N 28°48' W 095°06'0 0.0
2017-Sep-16 05:29N 28°48' W 095°06'  
Track history (hours):
 
Tides and Currents Weather Stations Pressure Air Temp Water Temp Dewpoint Dewpoint Depression Visibility Wind Speed Wind Dir Waves Ship Positions

Friendship

Last reported at 2017-Sep-24 15:42 UTC. Time now 2017-Oct-17 16:57 UTC.
Position N 29°23' W 094°49'.
Warning: this ship's position is 23 days out of date.

; draft 10.3 m.

Type: Cargo ship. MMSI: 538003592.

Date/timePositionNaut miles runAvg speedWind from/ knotsBaromVisibWave heightAir tempDewpointWater temp
2017-Sep-24 15:42N 29°23' W 094°49'211.6
2017-Sep-24 15:30N 29°25' W 094°50'611.2
2017-Sep-24 15:00N 29°30' W 094°52'510.7
2017-Sep-24 14:30N 29°35' W 094°56'510.3
2017-Sep-24 14:00N 29°39' W 094°58'4 8.2
2017-Sep-24 13:30N 29°43' W 095°01'3 6.2
2017-Sep-24 13:00N 29°45' W 095°04'2 4.9
2017-Sep-24 12:30N 29°44' W 095°07'1 1.8
2017-Sep-24 12:00N 29°44' W 095°08'  
2017-Sep-21 17:36N 29°44' W 095°08'0 0.0
2017-Sep-21 17:30N 29°44' W 095°08'0 0.0
2017-Sep-21 17:00N 29°44' W 095°08'0 0.0
2017-Sep-21 16:30N 29°44' W 095°08'1 1.9
2017-Sep-21 16:00N 29°45' W 095°06'3 4.6
2017-Sep-21 15:26N 29°44' W 095°03'3 6.2
2017-Sep-21 15:00N 29°42' W 095°01'5 9.3
2017-Sep-21 14:30N 29°39' W 094°58'611.7
2017-Sep-21 14:00N 29°34' W 094°55'612.3
2017-Sep-21 13:30N 29°28' W 094°51'713.3
2017-Sep-21 12:59N 29°22' W 094°48'  
2017-Sep-16 06:08N 28°48' W 095°06'0 0.0
2017-Sep-16 05:53N 28°48' W 095°06'0 0.0
2017-Sep-16 05:29N 28°48' W 095°06'  

Dump ship's entire track history